Time;durP1;ratioP1;P1;durP2;ratioP2;P2;SDS_P1;SDS_P2;PMS_P1;PMS_P2;Temp;Humidity;BMP_temperature;BMP_pressure;BME280_temperature;BME280_humidity;BME280_pressure;Samples;Min_cycle;Max_cycle;Signal;HPM_P1;HPM_P2
2024/02/20 00:00:41;;;;;;;30.80;18.70;;;;;;;4.07;70.24;96039.59;106674;1275;22528;-72
2024/02/20 00:03:29;;;;;;;28.80;15.90;;;;;;;4.07;71.20;96040.29;106258;1275;600698;-72
2024/02/20 00:05:57;;;;;;;31.70;17.20;;;;;;;4.09;71.29;96038.05;106643;1275;25471;-72
2024/02/20 00:08:26;;;;;;;34.40;18.40;;;;;;;4.09;72.04;96038.40;106533;1275;22521;-72
2024/02/20 00:10:55;;;;;;;29.30;16.60;;;;;;;4.08;71.99;96041.00;106673;1275;22528;-73
2024/02/20 00:13:23;;;;;;;40.40;21.70;;;;;;;4.05;72.10;96039.58;106586;1275;22541;-72
2024/02/20 00:15:51;;;;;;;41.20;22.40;;;;;;;4.03;72.03;96039.71;106630;1276;25262;-73
2024/02/20 00:18:20;;;;;;;45.30;23.00;;;;;;;4.00;72.32;96034.45;106728;1275;23031;-72
2024/02/20 00:20:49;;;;;;;64.90;32.20;;;;;;;3.96;72.50;96035.08;106726;1276;24246;-72
2024/02/20 00:23:17;;;;;;;45.40;24.90;;;;;;;3.95;72.04;96035.23;106632;1275;25463;-73
2024/02/20 00:25:48;;;;;;;52.90;26.30;;;;;;;3.92;72.05;96034.67;106724;1275;25326;-72
2024/02/20 00:28:17;;;;;;;45.80;25.20;;;;;;;3.88;71.81;96035.15;106589;1275;22708;-73
2024/02/20 00:30:45;;;;;;;42.00;23.30;;;;;;;3.87;71.90;96033.03;106646;1264;22524;-73
2024/02/20 00:33:13;;;;;;;62.40;26.80;;;;;;;3.87;72.11;96030.43;106684;1253;22657;-73
2024/02/20 00:35:42;;;;;;;50.50;24.20;;;;;;;3.86;72.05;96029.55;106660;1275;24359;-73
2024/02/20 00:38:11;;;;;;;40.30;22.40;;;;;;;3.84;72.35;96032.30;106672;1275;22526;-73
2024/02/20 00:40:39;;;;;;;42.60;22.50;;;;;;;3.83;72.62;96030.54;106758;1275;22663;-73
2024/02/20 00:43:08;;;;;;;40.30;23.50;;;;;;;3.82;73.00;96029.48;106672;1275;22624;-73
2024/02/20 00:45:37;;;;;;;42.10;22.90;;;;;;;3.82;73.15;96024.09;106643;1275;22779;-73
2024/02/20 00:48:06;;;;;;;43.30;24.70;;;;;;;3.86;73.78;96022.92;106668;1275;22527;-73
2024/02/20 00:50:35;;;;;;;41.00;23.30;;;;;;;3.90;73.74;96027.69;106667;1275;24913;-73
2024/02/20 00:53:04;;;;;;;44.20;26.70;;;;;;;3.94;73.73;96023.39;106707;1275;22624;-73
2024/02/20 00:55:32;;;;;;;46.70;25.90;;;;;;;3.95;74.39;96023.95;106660;1275;22527;-73
2024/02/20 00:58:01;;;;;;;39.70;25.10;;;;;;;3.95;74.52;96019.77;106653;1275;25304;-73
2024/02/20 01:00:29;;;;;;;63.80;34.60;;;;;;;4.03;74.55;96022.65;106727;1275;25195;-73
2024/02/20 01:02:58;;;;;;;56.80;31.60;;;;;;;4.06;73.65;96017.98;106665;1275;24320;-73
2024/02/20 01:05:27;;;;;;;52.20;28.80;;;;;;;4.11;73.53;96014.57;106578;1275;22647;-73
2024/02/20 01:07:57;;;;;;;43.40;24.10;;;;;;;4.20;73.55;96014.16;106624;1275;22519;-73
2024/02/20 01:10:25;;;;;;;31.20;19.10;;;;;;;4.22;73.50;96011.40;106668;1275;22527;-73
2024/02/20 01:12:54;;;;;;;28.50;16.60;;;;;;;4.25;73.97;96012.14;106666;1275;22639;-73
2024/02/20 01:15:23;;;;;;;32.70;19.80;;;;;;;4.25;74.25;96005.87;106696;1275;22522;-73
2024/02/20 01:17:52;;;;;;;20.40;13.80;;;;;;;4.24;73.43;96006.21;106567;1275;24657;-73
2024/02/20 01:20:21;;;;;;;35.20;21.50;;;;;;;4.21;73.77;96002.51;106678;1269;22528;-73
2024/02/20 01:22:50;;;;;;;47.10;24.20;;;;;;;4.25;73.64;95996.64;106638;1275;22647;-73
2024/02/20 01:25:18;;;;;;;35.20;21.00;;;;;;;4.26;73.56;95997.71;106596;1275;24367;-73
2024/02/20 01:27:47;;;;;;;42.10;23.70;;;;;;;4.30;74.61;95998.45;106579;1275;25223;-73
2024/02/20 01:30:16;;;;;;;36.90;22.60;;;;;;;4.30;74.15;95997.40;106671;1275;22551;-73
2024/02/20 01:32:44;;;;;;;34.30;20.50;;;;;;;4.31;73.68;95994.27;106701;1275;23961;-73
2024/02/20 01:35:13;;;;;;;25.30;14.60;;;;;;;4.35;73.32;95993.81;106654;1275;22520;-73
2024/02/20 01:37:42;;;;;;;29.00;17.10;;;;;;;4.30;72.88;95989.39;106662;1275;25329;-73
2024/02/20 01:40:11;;;;;;;27.10;16.70;;;;;;;4.25;73.11;95989.67;106664;1275;25227;-73
2024/02/20 01:42:39;;;;;;;30.30;16.80;;;;;;;4.23;73.47;95992.77;106628;1275;25360;-73
2024/02/20 01:45:08;;;;;;;32.10;16.80;;;;;;;4.26;73.43;95988.65;106722;1275;25463;-73
2024/02/20 01:47:37;;;;;;;26.30;15.60;;;;;;;4.28;73.12;95989.71;106657;1275;22568;-73
2024/02/20 01:50:06;;;;;;;24.20;12.60;;;;;;;4.24;72.96;95986.54;106632;1275;23018;-73
2024/02/20 01:52:35;;;;;;;22.00;12.80;;;;;;;4.14;73.08;95993.02;106700;1275;25220;-73
2024/02/20 01:55:05;;;;;;;27.80;14.50;;;;;;;4.08;72.84;95992.61;106650;1275;22534;-73
2024/02/20 01:57:34;;;;;;;17.20;11.10;;;;;;;4.04;73.52;95994.48;106705;1275;25138;-73
2024/02/20 02:00:04;;;;;;;19.60;11.50;;;;;;;4.02;74.59;95993.05;106671;1275;22641;-73
2024/02/20 02:02:39;;;;;;;21.80;14.30;;;;;;;3.98;75.07;95985.50;106627;1275;25572;-73
2024/02/20 02:05:07;;;;;;;22.00;14.60;;;;;;;3.97;74.60;95987.40;106663;1275;22756;-73
2024/02/20 02:07:36;;;;;;;22.00;13.40;;;;;;;3.96;74.21;95990.70;106638;1275;22540;-73
2024/02/20 02:10:05;;;;;;;20.10;13.70;;;;;;;3.96;74.18;95994.53;106688;1275;25374;-74
2024/02/20 02:12:34;;;;;;;23.30;13.60;;;;;;;3.95;74.17;95997.13;106640;1275;22535;-73
2024/02/20 02:15:02;;;;;;;18.70;11.90;;;;;;;3.92;74.31;95991.86;106666;1264;24352;-73
2024/02/20 02:17:31;;;;;;;25.00;14.30;;;;;;;3.90;74.24;95989.39;106659;1275;22647;-73
2024/02/20 02:20:00;;;;;;;19.70;13.00;;;;;;;3.89;74.93;95987.66;106634;1275;22542;-73
2024/02/20 02:22:28;;;;;;;18.80;12.10;;;;;;;3.89;74.72;95980.86;106655;1252;22531;-73
2024/02/20 02:24:57;;;;;;;23.40;15.20;;;;;;;3.87;75.93;95979.63;106672;1275;22613;-73
2024/02/20 02:27:26;;;;;;;24.00;15.60;;;;;;;3.87;76.94;95973.70;106621;1275;22649;-73
2024/02/20 02:29:54;;;;;;;22.60;15.50;;;;;;;3.88;76.38;95972.48;106617;1275;22925;-73
2024/02/20 02:32:22;;;;;;;22.00;13.60;;;;;;;3.90;76.27;95973.04;106656;1275;24197;-73
2024/02/20 02:34:50;;;;;;;18.00;11.30;;;;;;;3.94;76.05;95974.31;106641;1275;24360;-73
2024/02/20 02:37:19;;;;;;;19.00;10.10;;;;;;;3.98;75.72;95972.12;106571;1275;22556;-73
2024/02/20 02:39:47;;;;;;;18.70;10.80;;;;;;;4.02;75.49;95971.44;106668;1275;25409;-73
2024/02/20 02:42:15;;;;;;;17.80;10.70;;;;;;;4.03;75.20;95971.83;106683;1275;22626;-73
2024/02/20 02:44:46;;;;;;;17.70;10.20;;;;;;;4.02;75.02;95971.30;106627;1275;22773;-73
2024/02/20 02:47:14;;;;;;;21.00;11.00;;;;;;;4.01;74.98;95968.67;106739;1275;22650;-73
2024/02/20 02:49:43;;;;;;;18.40;10.90;;;;;;;4.03;74.95;95968.16;106624;1275;22524;-73
2024/02/20 02:52:11;;;;;;;16.20;9.90;;;;;;;4.01;74.60;95965.34;106825;1275;24308;-73
2024/02/20 02:54:39;;;;;;;19.30;11.90;;;;;;;4.02;74.57;95970.59;106624;1263;24396;-73
2024/02/20 02:57:08;;;;;;;24.70;13.70;;;;;;;4.08;75.03;95962.15;106618;1275;22598;-73
2024/02/20 02:59:36;;;;;;;24.10;13.30;;;;;;;4.13;75.54;95971.59;106707;1275;22537;-73
2024/02/20 03:02:04;;;;;;;17.70;11.80;;;;;;;4.16;75.18;95978.59;106697;1275;22527;-73
2024/02/20 03:04:33;;;;;;;19.00;11.60;;;;;;;4.20;75.16;95977.77;106592;1275;22607;-73
2024/02/20 03:07:01;;;;;;;18.80;11.30;;;;;;;4.16;74.58;95972.85;106660;1265;24199;-72
2024/02/20 03:09:29;;;;;;;16.90;10.70;;;;;;;4.11;74.44;95968.77;106641;1275;22581;-73
2024/02/20 03:11:58;;;;;;;21.30;13.10;;;;;;;4.10;74.48;95970.52;106613;1275;25350;-73
2024/02/20 03:14:26;;;;;;;19.00;11.30;;;;;;;4.08;74.59;95979.02;106775;1275;22628;-73
2024/02/20 03:16:54;;;;;;;20.20;12.10;;;;;;;4.02;74.82;95981.55;106657;1264;24208;-73
2024/02/20 03:19:22;;;;;;;20.10;12.10;;;;;;;3.98;75.08;95983.77;106508;1275;22653;-73
2024/02/20 03:21:51;;;;;;;21.20;11.80;;;;;;;4.00;75.48;95985.19;106700;1275;22525;-73
2024/02/20 03:24:20;;;;;;;17.90;10.80;;;;;;;3.98;75.51;95989.68;106755;1275;22532;-73
2024/02/20 03:26:48;;;;;;;19.00;10.90;;;;;;;3.90;74.86;95988.17;106707;1275;24344;-73
2024/02/20 03:29:17;;;;;;;16.10;11.00;;;;;;;3.88;74.72;95993.02;106692;1275;22541;-73
2024/02/20 03:31:45;;;;;;;18.30;11.70;;;;;;;3.85;75.17;95998.90;106533;1275;22546;-73
2024/02/20 03:34:13;;;;;;;19.00;11.10;;;;;;;3.85;75.43;95996.99;106750;1275;22530;-73
2024/02/20 03:36:42;;;;;;;20.10;11.90;;;;;;;3.83;75.84;95999.40;106683;1275;24177;-73
2024/02/20 03:39:11;;;;;;;21.50;13.10;;;;;;;3.83;75.92;95997.83;106707;1275;22631;-73
2024/02/20 03:41:39;;;;;;;23.20;13.70;;;;;;;3.82;75.56;96003.73;106768;1275;22617;-73
2024/02/20 03:44:08;;;;;;;24.50;14.10;;;;;;;3.77;75.81;96001.92;106601;1275;22520;-73
2024/02/20 03:46:36;;;;;;;18.50;11.40;;;;;;;3.76;75.38;96002.96;106668;1275;24204;-73
2024/02/20 03:49:04;;;;;;;21.90;12.60;;;;;;;3.77;76.22;96005.40;106725;1275;25241;-73
2024/02/20 03:51:33;;;;;;;25.60;15.00;;;;;;;3.74;76.20;96003.27;106675;1275;25714;-73
2024/02/20 03:54:01;;;;;;;26.50;14.40;;;;;;;3.73;76.29;96007.09;106566;1275;24263;-73
2024/02/20 03:56:29;;;;;;;26.80;14.00;;;;;;;3.72;76.54;96009.67;106734;1275;22551;-73
2024/02/20 03:58:58;;;;;;;25.90;14.60;;;;;;;3.72;76.16;96008.13;106525;1275;24236;-72
2024/02/20 04:01:26;;;;;;;30.10;15.50;;;;;;;3.72;76.51;96011.25;106664;1275;23146;-72
2024/02/20 04:03:54;;;;;;;28.80;16.10;;;;;;;3.72;76.43;96011.08;106727;1264;22639;-73
2024/02/20 04:06:23;;;;;;;25.20;13.70;;;;;;;3.72;76.98;96010.21;106596;1275;24375;-72
2024/02/20 04:08:51;;;;;;;28.40;16.60;;;;;;;3.72;76.85;96014.02;106610;1275;22544;-72
2024/02/20 04:11:20;;;;;;;28.50;15.90;;;;;;;3.72;76.51;96016.46;106666;1275;24212;-72
2024/02/20 04:13:48;;;;;;;25.70;14.40;;;;;;;3.70;76.95;96016.98;106660;1275;22646;-72
2024/02/20 04:16:16;;;;;;;26.70;14.40;;;;;;;3.68;76.93;96017.11;106797;1275;24197;-73
2024/02/20 04:18:44;;;;;;;26.90;15.80;;;;;;;3.66;76.25;96016.04;106669;1276;25284;-72
2024/02/20 04:21:13;;;;;;;30.10;14.90;;;;;;;3.68;76.32;96013.62;106607;1270;24241;-72
2024/02/20 04:23:41;;;;;;;25.80;14.50;;;;;;;3.71;76.16;96012.27;106651;1252;22615;-72
2024/02/20 04:26:09;;;;;;;18.20;12.00;;;;;;;3.73;76.25;96010.05;106637;1275;25780;-72
2024/02/20 04:28:37;;;;;;;20.30;12.40;;;;;;;3.75;76.28;96012.84;106762;1275;22528;-73
2024/02/20 04:31:06;;;;;;;20.80;12.30;;;;;;;3.75;76.23;96010.06;106592;1275;24386;-72
2024/02/20 04:33:34;;;;;;;22.60;13.30;;;;;;;3.75;76.07;96014.24;106670;1275;24710;-72
2024/02/20 04:36:02;;;;;;;26.50;13.70;;;;;;;3.75;76.60;96011.81;106644;1275;23892;-73
2024/02/20 04:38:31;;;;;;;30.90;14.30;;;;;;;3.76;76.75;96015.66;106676;1275;24220;-72
2024/02/20 04:40:59;;;;;;;25.90;16.00;;;;;;;3.78;76.47;96017.95;106640;1275;22526;-72
2024/02/20 04:43:27;;;;;;;22.30;14.10;;;;;;;3.84;76.81;96016.98;106603;1275;22551;-73
2024/02/20 04:45:56;;;;;;;17.80;11.60;;;;;;;3.89;76.79;96018.28;106682;1275;22648;-73
2024/02/20 04:48:24;;;;;;;20.60;12.90;;;;;;;3.95;77.04;96019.59;106419;1275;25504;-73
2024/02/20 04:50:53;;;;;;;29.40;16.00;;;;;;;4.00;77.15;96015.11;106754;1275;23371;-73
2024/02/20 04:53:21;;;;;;;39.70;19.60;;;;;;;4.02;77.04;96016.36;106762;1274;25612;-72
2024/02/20 04:55:50;;;;;;;29.70;15.90;;;;;;;4.02;77.01;96016.54;106643;1275;24056;-73
2024/02/20 04:58:18;;;;;;;21.10;12.30;;;;;;;4.05;76.84;96019.02;106752;1274;24207;-72
2024/02/20 05:00:46;;;;;;;59.40;31.60;;;;;;;4.03;76.69;96020.73;106679;1274;22527;-74
2024/02/20 05:03:15;;;;;;;166.50;82.30;;;;;;;4.00;76.59;96023.83;106730;1275;22536;-72
2024/02/20 05:05:43;;;;;;;29.70;17.20;;;;;;;3.99;76.65;96024.86;106806;1274;24203;-72
2024/02/20 05:08:11;;;;;;;56.60;29.40;;;;;;;3.99;76.94;96028.70;106762;1262;22813;-73
2024/02/20 05:10:40;;;;;;;48.50;28.20;;;;;;;3.97;77.60;96025.52;106648;1274;22520;-72
2024/02/20 05:13:08;;;;;;;44.00;23.20;;;;;;;3.97;77.76;96027.45;106766;1275;22514;-72
2024/02/20 05:15:36;;;;;;;45.90;25.60;;;;;;;3.99;77.77;96028.69;106744;1274;22513;-72
2024/02/20 05:18:05;;;;;;;36.70;22.20;;;;;;;3.99;77.77;96033.73;106607;1274;22533;-72
2024/02/20 05:20:33;;;;;;;32.30;20.00;;;;;;;4.01;77.96;96035.50;106648;1264;24455;-72
2024/02/20 05:23:02;;;;;;;28.60;18.30;;;;;;;4.00;77.72;96036.88;106738;1274;22519;-72
2024/02/20 05:25:30;;;;;;;35.30;20.80;;;;;;;3.95;77.39;96039.60;106805;1274;24193;-72
2024/02/20 05:27:59;;;;;;;32.40;19.40;;;;;;;3.88;78.03;96039.50;106765;1275;22589;-73
2024/02/20 05:30:27;;;;;;;27.30;17.80;;;;;;;3.81;78.87;96043.39;106725;1274;22655;-72
2024/02/20 05:32:55;;;;;;;24.90;16.20;;;;;;;3.77;79.34;96045.23;106770;1275;22521;-72
2024/02/20 05:35:23;;;;;;;25.20;16.40;;;;;;;3.75;79.53;96050.09;106668;1274;22655;-73
2024/02/20 05:37:51;;;;;;;38.00;22.90;;;;;;;3.75;79.96;96050.27;106760;1275;22525;-73
2024/02/20 05:40:20;;;;;;;44.30;27.90;;;;;;;3.73;79.87;96045.02;106745;1275;24060;-72
2024/02/20 05:42:48;;;;;;;61.20;35.90;;;;;;;3.64;81.18;96047.49;106765;1274;24225;-72
2024/02/20 05:45:18;;;;;;;50.30;30.00;;;;;;;3.61;80.95;96052.84;106746;1274;22556;-72
2024/02/20 05:47:46;;;;;;;38.90;21.10;;;;;;;3.59;80.78;96051.07;106881;1274;25485;-73
2024/02/20 05:50:15;;;;;;;84.00;51.30;;;;;;;3.58;80.55;96049.30;106647;1274;25339;-72
2024/02/20 05:52:44;;;;;;;45.40;27.10;;;;;;;3.53;82.45;96052.35;106657;1272;25345;-72
2024/02/20 05:55:15;;;;;;;29.30;18.60;;;;;;;3.51;83.04;96059.98;106713;1274;24267;-72
2024/02/20 05:57:43;;;;;;;37.90;24.00;;;;;;;3.48;83.67;96063.76;106728;1274;24241;-72
2024/02/20 06:00:12;;;;;;;36.90;24.00;;;;;;;3.45;83.89;96063.73;106786;1274;22667;-72
2024/02/20 06:02:41;;;;;;;31.10;20.50;;;;;;;3.46;83.13;96067.73;106790;1267;24208;-72
2024/02/20 06:05:10;;;;;;;28.90;20.40;;;;;;;3.45;83.51;96071.02;106752;1274;22640;-72
2024/02/20 06:07:38;;;;;;;24.10;16.40;;;;;;;3.44;84.06;96073.45;106752;1274;22654;-72
2024/02/20 06:10:07;;;;;;;23.50;16.00;;;;;;;3.44;84.10;96079.86;106726;1264;22534;-72
2024/02/20 06:12:36;;;;;;;28.10;17.80;;;;;;;3.45;84.05;96080.06;106812;1274;22654;-72
2024/02/20 06:15:04;;;;;;;28.90;18.60;;;;;;;3.47;84.54;96083.56;106801;1275;22523;-72
2024/02/20 06:17:34;;;;;;;29.00;17.60;;;;;;;3.50;84.15;96088.85;106666;1274;22549;-72
2024/02/20 06:20:03;;;;;;;25.60;17.30;;;;;;;3.55;84.56;96094.84;106774;1274;24364;-72
2024/02/20 06:22:32;;;;;;;27.20;16.80;;;;;;;3.58;84.48;96093.31;106786;1274;23835;-73
2024/02/20 06:25:02;;;;;;;27.80;17.30;;;;;;;3.60;85.65;96097.70;106799;1274;25217;-72
2024/02/20 06:27:30;;;;;;;23.40;14.40;;;;;;;3.66;85.63;96091.73;106648;1275;22527;-73
2024/02/20 06:29:58;;;;;;;27.30;16.60;;;;;;;3.73;85.66;96097.20;106617;1253;22648;-72
2024/02/20 06:32:27;;;;;;;25.40;15.20;;;;;;;3.80;85.74;96097.33;106797;1275;22699;-72
2024/02/20 06:34:57;;;;;;;28.70;17.00;;;;;;;3.94;85.66;96096.85;106737;1275;22539;-72
2024/02/20 06:37:25;;;;;;;26.40;15.40;;;;;;;4.05;85.28;96102.93;106820;1275;24246;-73
2024/02/20 06:39:54;;;;;;;20.90;13.70;;;;;;;4.08;84.96;96103.15;106727;1269;24214;-72
2024/02/20 06:42:22;;;;;;;19.80;12.90;;;;;;;4.11;84.75;96105.80;106782;1274;22637;-72
2024/02/20 06:44:50;;;;;;;21.20;13.20;;;;;;;4.13;84.63;96106.17;106700;1275;22530;-72
2024/02/20 06:47:18;;;;;;;16.60;11.10;;;;;;;4.15;84.47;96104.80;106768;1260;24450;-73
2024/02/20 06:49:47;;;;;;;18.50;11.90;;;;;;;4.14;84.26;96100.27;106629;1275;25409;-73
2024/02/20 06:52:15;;;;;;;22.40;14.50;;;;;;;4.15;84.61;96099.23;106715;1275;25715;-72
2024/02/20 06:54:43;;;;;;;45.80;26.60;;;;;;;4.24;85.73;96100.42;106626;1275;23004;-72
2024/02/20 06:57:12;;;;;;;53.90;28.60;;;;;;;4.31;85.71;96101.04;106686;1275;24211;-72
2024/02/20 06:59:40;;;;;;;76.60;37.60;;;;;;;4.31;85.78;96102.60;106635;1275;22654;-73
2024/02/20 07:02:08;;;;;;;57.70;32.70;;;;;;;4.26;85.93;96103.05;106657;1275;22525;-72
2024/02/20 07:04:40;;;;;;;66.40;35.90;;;;;;;4.26;85.79;96105.31;106575;1275;22527;-72
2024/02/20 07:07:09;;;;;;;90.20;45.30;;;;;;;4.35;85.92;96104.56;106630;1275;22633;-72
2024/02/20 07:09:37;;;;;;;78.30;39.30;;;;;;;4.45;86.28;96102.60;106611;1275;24276;-72
2024/02/20 07:12:09;;;;;;;57.10;30.90;;;;;;;4.56;86.37;96101.36;106696;1275;25275;-72
2024/02/20 07:14:37;;;;;;;42.60;25.10;;;;;;;4.72;86.28;96099.99;106683;1275;24177;-72
2024/02/20 07:17:05;;;;;;;31.10;18.80;;;;;;;4.82;85.73;96098.20;106656;1275;23889;-72
2024/02/20 07:19:35;;;;;;;24.40;15.90;;;;;;;4.85;85.00;96095.08;106696;1275;25325;-72
2024/02/20 07:22:03;;;;;;;20.30;14.00;;;;;;;4.90;84.78;96095.15;106577;1275;26761;-72
2024/02/20 07:24:31;;;;;;;27.90;17.20;;;;;;;4.91;84.29;96090.98;106649;1275;22536;-72
2024/02/20 07:26:59;;;;;;;258.90;90.20;;;;;;;4.93;84.23;96090.64;106641;1275;22656;-72
2024/02/20 07:29:28;;;;;;;51.00;24.70;;;;;;;4.96;83.93;96090.33;106598;1253;24254;-72
2024/02/20 07:31:56;;;;;;;20.70;15.00;;;;;;;4.95;83.84;96089.98;106645;1275;23929;-72
2024/02/20 07:34:25;;;;;;;23.50;15.80;;;;;;;5.01;83.96;96096.67;106693;1275;22544;-72
2024/02/20 07:36:54;;;;;;;19.40;13.60;;;;;;;5.06;83.94;96094.11;106612;1275;24364;-72
2024/02/20 07:39:22;;;;;;;19.50;13.00;;;;;;;5.18;83.92;96094.40;106684;1275;23611;-72
2024/02/20 07:41:51;;;;;;;19.50;14.00;;;;;;;5.27;83.67;96092.94;106659;1275;24256;-72
2024/02/20 07:44:20;;;;;;;19.20;13.20;;;;;;;5.30;83.28;96093.14;106838;1275;24240;-72
2024/02/20 07:46:48;;;;;;;20.10;13.50;;;;;;;5.35;83.19;96099.45;106642;1275;22675;-73
2024/02/20 07:49:16;;;;;;;23.00;14.80;;;;;;;5.38;82.90;96096.70;106636;1275;22507;-72
2024/02/20 07:51:45;;;;;;;20.80;13.80;;;;;;;5.39;82.61;96104.73;106631;1275;25530;-72
2024/02/20 07:54:14;;;;;;;24.40;14.90;;;;;;;5.39;82.40;96097.23;106667;1275;22566;-72
2024/02/20 07:56:42;;;;;;;22.10;14.10;;;;;;;5.40;82.42;96093.58;106695;1275;22643;-73
2024/02/20 07:59:11;;;;;;;19.30;13.80;;;;;;;5.46;82.44;96093.98;106661;1253;24316;-72
2024/02/20 08:01:39;;;;;;;20.60;12.50;;;;;;;5.50;82.16;96094.02;106578;1275;22647;-73
2024/02/20 08:04:08;;;;;;;29.30;21.70;;;;;;;5.49;81.80;96088.77;106536;1275;25271;-72
2024/02/20 08:06:37;;;;;;;24.60;19.00;;;;;;;5.57;82.39;96089.01;106626;1275;22614;-73
2024/02/20 08:09:06;;;;;;;17.70;12.90;;;;;;;5.61;82.34;96087.30;106751;1275;24240;-73
2024/02/20 08:11:35;;;;;;;19.60;13.50;;;;;;;5.67;82.40;96092.08;106593;1253;25590;-72
2024/02/20 08:14:03;;;;;;;19.50;12.40;;;;;;;5.71;81.70;96090.88;106598;1275;25460;-73
2024/02/20 08:16:32;;;;;;;23.10;16.40;;;;;;;5.71;81.70;96088.95;106947;1275;24263;-72
2024/02/20 08:19:01;;;;;;;18.30;12.90;;;;;;;5.87;82.01;96094.67;106922;1275;25353;-73
2024/02/20 08:21:29;;;;;;;20.10;14.30;;;;;;;5.99;81.86;96096.36;106978;1275;24263;-72
2024/02/20 08:24:01;;;;;;;17.80;12.20;;;;;;;6.19;82.04;96087.05;106692;1275;24362;-73
2024/02/20 08:26:29;;;;;;;25.40;15.00;;;;;;;6.38;81.86;96092.06;106657;1275;24441;-73
2024/02/20 08:28:57;;;;;;;20.30;14.10;;;;;;;6.63;81.47;96092.02;106660;1275;25468;-73
2024/02/20 08:31:27;;;;;;;26.10;13.10;;;;;;;6.90;81.35;96083.40;106634;1265;25471;-73
2024/02/20 08:33:55;;;;;;;20.20;12.20;;;;;;;7.14;80.57;96082.77;107088;1275;22530;-73
2024/02/20 08:36:24;;;;;;;18.40;13.30;;;;;;;7.39;80.67;96085.09;106849;1275;22535;-73
2024/02/20 08:38:52;;;;;;;21.30;14.00;;;;;;;7.63;79.74;96091.25;106607;1275;25266;-73
2024/02/20 08:41:20;;;;;;;20.40;14.50;;;;;;;7.85;78.90;96093.20;106632;1275;25371;-73
2024/02/20 08:43:50;;;;;;;21.70;14.20;;;;;;;7.99;76.53;96090.04;106676;1275;24403;-73
2024/02/20 08:46:19;;;;;;;21.20;13.80;;;;;;;8.02;75.69;96088.80;106668;1276;22638;-73
2024/02/20 08:48:47;;;;;;;20.50;14.30;;;;;;;8.21;76.15;96094.04;106639;1275;22524;-72
2024/02/20 08:51:16;;;;;;;20.10;13.90;;;;;;;8.26;75.37;96095.27;106716;1275;24388;-73
2024/02/20 08:53:46;;;;;;;20.20;13.70;;;;;;;8.31;75.57;96092.80;106430;1275;22570;-73
2024/02/20 08:56:15;;;;;;;18.50;12.20;;;;;;;8.30;75.23;96094.56;106654;1275;22543;-73
2024/02/20 08:58:43;;;;;;;13.40;10.00;;;;;;;8.31;75.57;96093.66;106728;1275;23717;-73
2024/02/20 09:01:11;;;;;;;15.90;9.80;;;;;;;8.37;75.04;96098.04;106603;1275;25522;-72
2024/02/20 09:03:40;;;;;;;12.00;9.10;;;;;;;8.32;74.31;96099.81;106668;1275;22548;-73
2024/02/20 09:06:08;;;;;;;10.80;7.40;;;;;;;8.22;73.98;96102.28;106950;1275;22520;-73
2024/02/20 09:08:37;;;;;;;6.40;4.70;;;;;;;8.15;73.47;96105.10;106828;1275;24301;-73
2024/02/20 09:11:05;;;;;;;5.00;4.30;;;;;;;8.09;73.32;96107.90;106677;1275;25243;-73
2024/02/20 09:13:34;;;;;;;6.50;4.60;;;;;;;8.07;73.60;96107.73;106624;1275;22533;-73
2024/02/20 09:16:03;;;;;;;5.00;3.80;;;;;;;8.18;73.67;96101.39;106638;1263;24359;-73
2024/02/20 09:18:35;;;;;;;7.60;4.80;;;;;;;8.27;73.02;96100.00;106746;1275;24365;-73
2024/02/20 09:21:06;;;;;;;6.50;4.40;;;;;;;8.53;73.17;96101.37;106688;1275;22643;-73
2024/02/20 09:23:38;;;;;;;5.40;4.00;;;;;;;8.80;70.39;96096.38;106655;1266;22521;-72
2024/02/20 09:26:06;;;;;;;5.40;4.00;;;;;;;9.04;69.95;96092.06;106655;1275;22529;-72
2024/02/20 09:28:36;;;;;;;3.80;2.90;;;;;;;9.12;66.69;96091.48;106645;1275;22772;-72
2024/02/20 09:31:04;;;;;;;5.60;3.30;;;;;;;9.07;67.24;96095.91;106588;1275;22527;-73
2024/02/20 09:33:33;;;;;;;5.70;3.30;;;;;;;8.98;67.35;96099.48;106719;1275;22517;-73
2024/02/20 09:36:01;;;;;;;6.10;4.50;;;;;;;8.86;67.06;96101.80;106439;1275;24224;-73
2024/02/20 09:38:30;;;;;;;10.20;6.20;;;;;;;8.97;68.27;96104.56;106612;1275;25329;-72
2024/02/20 09:41:00;;;;;;;5.40;4.10;;;;;;;9.15;68.68;96104.84;107008;1275;22663;-73
2024/02/20 09:43:31;;;;;;;5.90;4.30;;;;;;;9.33;67.67;96105.44;106739;1275;25236;-72
2024/02/20 09:46:16;;;;;;;4.40;3.40;;;;;;;9.46;66.52;96107.30;106652;1275;22531;-72
2024/02/20 09:48:46;;;;;;;6.50;4.20;;;;;;;9.54;65.73;96106.36;106875;1275;24214;-72
2024/02/20 09:51:18;;;;;;;5.50;3.40;;;;;;;9.55;65.82;96107.77;106996;1275;24289;-72
2024/02/20 09:53:50;;;;;;;4.70;3.30;;;;;;;9.52;65.97;96107.42;106821;1275;24281;-72
2024/02/20 09:56:18;;;;;;;6.80;4.00;;;;;;;9.47;64.24;96113.08;106622;1275;25450;-73
2024/02/20 09:58:46;;;;;;;6.60;4.40;;;;;;;9.47;65.07;96113.60;106635;1275;24201;-72
2024/02/20 10:01:16;;;;;;;5.50;3.50;;;;;;;9.46;65.65;96112.91;106651;1275;24510;-73
2024/02/20 10:03:47;;;;;;;11.70;6.50;;;;;;;9.50;65.93;96115.17;106755;1275;22748;-74
2024/02/20 10:06:18;;;;;;;5.90;3.90;;;;;;;9.51;64.83;96112.71;106910;1275;22524;-72
2024/02/20 10:08:54;;;;;;;7.30;4.50;;;;;;;9.40;63.64;96113.83;106880;1275;23979;-72
2024/02/20 10:11:23;;;;;;;7.60;5.00;;;;;;;9.43;64.67;96112.92;106759;1275;24208;-73
2024/02/20 10:13:55;;;;;;;3.80;2.70;;;;;;;9.44;63.27;96107.30;106682;1275;22531;-73
2024/02/20 10:16:24;;;;;;;4.60;2.90;;;;;;;9.51;63.54;96110.95;106999;1275;22526;-73
2024/02/20 10:19:00;;;;;;;4.00;2.60;;;;;;;9.63;63.17;96110.52;106915;1275;22527;-73
2024/02/20 10:21:30;;;;;;;3.40;2.60;;;;;;;9.73;62.68;96110.63;106551;1275;25396;-72
2024/02/20 10:24:05;;;;;;;7.30;5.00;;;;;;;9.80;62.27;96111.81;106644;1275;24197;-72
2024/02/20 10:26:47;;;;;;;8.30;5.80;;;;;;;9.76;63.41;96111.84;106608;1275;23887;-72
2024/02/20 10:29:17;;;;;;;6.50;5.10;;;;;;;9.49;64.59;96110.27;106613;1275;22518;-72
2024/02/20 10:31:45;;;;;;;11.80;7.20;;;;;;;9.26;65.36;96114.60;106702;1275;25318;-72
2024/02/20 10:34:19;;;;;;;8.30;5.40;;;;;;;8.89;66.32;96118.81;106814;1275;22526;-73
2024/02/20 10:36:48;;;;;;;10.80;7.40;;;;;;;8.58;67.14;96119.60;107054;1275;22799;-72
2024/02/20 10:39:21;;;;;;;8.90;6.80;;;;;;;8.34;68.24;96115.77;106666;1275;25271;-72
2024/02/20 10:41:51;;;;;;;;;;;;;;;8.17;68.60;96114.38;106838;1275;22501;-72
2024/02/20 10:44:20;;;;;;;20.70;11.30;;;;;;;8.03;68.78;96118.06;106764;1275;25230;-73
2024/02/20 10:46:56;;;;;;;14.90;9.20;;;;;;;7.95;69.60;96116.48;106657;1275;22531;-73
2024/02/20 10:49:30;;;;;;;16.30;9.40;;;;;;;7.88;69.78;96116.15;106697;1275;25330;-72
2024/02/20 10:52:05;;;;;;;9.90;6.10;;;;;;;7.81;69.63;96118.23;106626;1275;22642;-72
2024/02/20 10:54:34;;;;;;;8.80;6.00;;;;;;;7.71;69.86;96118.41;106661;1275;24443;-72
2024/02/20 10:57:14;;;;;;;10.60;6.80;;;;;;;7.62;70.19;96120.67;106690;1275;25303;-72
2024/02/20 10:59:43;;;;;;;6.80;5.00;;;;;;;7.60;70.38;96119.63;106757;1275;22569;-72
2024/02/20 11:02:13;;;;;;;8.60;5.00;;;;;;;7.53;70.46;96119.43;106999;1275;23151;-72
2024/02/20 11:04:45;;;;;;;10.80;6.10;;;;;;;7.50;70.78;96119.06;107123;1269;25265;-72
2024/02/20 11:07:14;;;;;;;11.30;6.00;;;;;;;7.48;71.42;96117.48;106859;1275;24366;-72
2024/02/20 11:10:18;;;;;;;9.90;6.30;;;;;;;7.48;72.29;96118.20;106922;1275;25348;-72
2024/02/20 11:12:49;;;;;;;13.50;8.30;;;;;;;7.57;72.63;96117.69;106994;1275;25501;-73
2024/02/20 11:15:20;;;;;;;13.10;8.80;;;;;;;7.62;72.67;96114.20;106580;1276;22878;-73
2024/02/20 11:17:53;;;;;;;16.80;9.50;;;;;;;7.65;72.48;96113.66;106884;1275;22539;-73
2024/02/20 11:20:23;;;;;;;9.00;6.70;;;;;;;7.74;72.59;96113.85;106871;1269;22546;-73
2024/02/20 11:22:52;;;;;;;11.50;7.00;;;;;;;7.80;72.36;96113.52;106667;1275;24330;-73
2024/02/20 11:25:20;;;;;;;10.70;6.80;;;;;;;7.87;72.43;96110.00;106706;1275;24208;-72
2024/02/20 11:27:49;;;;;;;8.60;6.30;;;;;;;7.93;72.02;96108.25;106871;1275;25328;-72